Terminal Aerodrome Forecast
Issued by NWS

Home | Current Version | Previous Version | Text Only | Print | Product List | Glossary On
Versions: 1 2 3 4 5 6 7 8 9 10 11 12 13 14
000
FTUS45 KGJT 271739
TAFCNY
TAF
KCNY 271739Z 2718/2818 11006KT P6SM SCT100 BKN200
     FM272000 25008KT P6SM VCTS SCT080CB BKN100
     FM280000 18007KT P6SM VCSH BKN090
     FM280400 13004KT P6SM SCT090 BKN130=

USA.gov is the U.S. government's official web portal to all federal, state and local government web resources and services.